sensor_id;sensor_type;location;lat;lon;timestamp;P1;durP1;ratioP1;P2;durP2;ratioP2
75758;SDS011;64371;47.566;19.086;2023-07-16T00:00:10;14.90;;;13.40;;
75758;SDS011;64371;47.566;19.086;2023-07-16T00:03:13;15.57;;;13.05;;
75758;SDS011;64371;47.566;19.086;2023-07-16T00:06:16;15.23;;;13.40;;
75758;SDS011;64371;47.566;19.086;2023-07-16T00:09:19;17.00;;;12.98;;
75758;SDS011;64371;47.566;19.086;2023-07-16T00:12:21;15.35;;;13.85;;
75758;SDS011;64371;47.566;19.086;2023-07-16T00:15:24;15.18;;;13.68;;
75758;SDS011;64371;47.566;19.086;2023-07-16T00:18:26;15.82;;;14.27;;
75758;SDS011;64371;47.566;19.086;2023-07-16T00:21:29;15.23;;;13.73;;
75758;SDS011;64371;47.566;19.086;2023-07-16T00:24:31;14.98;;;13.32;;
75758;SDS011;64371;47.566;19.086;2023-07-16T00:27:33;15.35;;;13.40;;
75758;SDS011;64371;47.566;19.086;2023-07-16T00:30:36;17.45;;;12.88;;
75758;SDS011;64371;47.566;19.086;2023-07-16T00:33:38;14.18;;;12.40;;
75758;SDS011;64371;47.566;19.086;2023-07-16T00:36:41;21.43;;;13.13;;
75758;SDS011;64371;47.566;19.086;2023-07-16T00:39:43;14.10;;;12.40;;
75758;SDS011;64371;47.566;19.086;2023-07-16T00:42:46;14.07;;;12.65;;
75758;SDS011;64371;47.566;19.086;2023-07-16T00:45:48;15.00;;;12.88;;
75758;SDS011;64371;47.566;19.086;2023-07-16T00:48:51;14.80;;;12.82;;
75758;SDS011;64371;47.566;19.086;2023-07-16T00:51:54;14.63;;;12.83;;
75758;SDS011;64371;47.566;19.086;2023-07-16T00:54:58;14.48;;;12.48;;
75758;SDS011;64371;47.566;19.086;2023-07-16T00:58:05;14.15;;;12.75;;
75758;SDS011;64371;47.566;19.086;2023-07-16T01:01:08;15.82;;;13.38;;
75758;SDS011;64371;47.566;19.086;2023-07-16T01:04:11;15.25;;;13.25;;
75758;SDS011;64371;47.566;19.086;2023-07-16T01:07:14;14.67;;;13.17;;
75758;SDS011;64371;47.566;19.086;2023-07-16T01:10:20;14.85;;;13.35;;
75758;SDS011;64371;47.566;19.086;2023-07-16T01:13:30;15.55;;;13.93;;
75758;SDS011;64371;47.566;19.086;2023-07-16T01:16:32;16.95;;;13.60;;
75758;SDS011;64371;47.566;19.086;2023-07-16T01:19:38;16.08;;;14.35;;
75758;SDS011;64371;47.566;19.086;2023-07-16T01:22:52;15.13;;;13.53;;
75758;SDS011;64371;47.566;19.086;2023-07-16T01:29:39;15.32;;;13.82;;
75758;SDS011;64371;47.566;19.086;2023-07-16T01:32:46;15.73;;;13.73;;
75758;SDS011;64371;47.566;19.086;2023-07-16T01:35:50;15.32;;;13.73;;
75758;SDS011;64371;47.566;19.086;2023-07-16T01:38:53;18.13;;;13.77;;
75758;SDS011;64371;47.566;19.086;2023-07-16T01:41:55;14.73;;;13.07;;
75758;SDS011;64371;47.566;19.086;2023-07-16T01:44:58;15.20;;;13.60;;
75758;SDS011;64371;47.566;19.086;2023-07-16T01:51:24;13.73;;;12.27;;
75758;SDS011;64371;47.566;19.086;2023-07-16T01:54:29;14.03;;;12.53;;
75758;SDS011;64371;47.566;19.086;2023-07-16T01:57:33;13.80;;;12.38;;
75758;SDS011;64371;47.566;19.086;2023-07-16T02:00:35;13.93;;;12.43;;
75758;SDS011;64371;47.566;19.086;2023-07-16T02:03:38;12.73;;;11.35;;
75758;SDS011;64371;47.566;19.086;2023-07-16T02:06:41;15.27;;;11.70;;
75758;SDS011;64371;47.566;19.086;2023-07-16T02:09:43;12.97;;;11.43;;
75758;SDS011;64371;47.566;19.086;2023-07-16T02:12:46;18.25;;;11.63;;
75758;SDS011;64371;47.566;19.086;2023-07-16T02:15:48;15.30;;;11.30;;
75758;SDS011;64371;47.566;19.086;2023-07-16T02:18:51;12.23;;;10.68;;
75758;SDS011;64371;47.566;19.086;2023-07-16T02:21:53;13.40;;;11.55;;
75758;SDS011;64371;47.566;19.086;2023-07-16T02:24:56;12.87;;;11.20;;
75758;SDS011;64371;47.566;19.086;2023-07-16T02:27:59;12.95;;;11.60;;
75758;SDS011;64371;47.566;19.086;2023-07-16T02:31:02;15.35;;;11.25;;
75758;SDS011;64371;47.566;19.086;2023-07-16T02:34:05;13.65;;;11.10;;
75758;SDS011;64371;47.566;19.086;2023-07-16T02:37:07;13.30;;;11.07;;
75758;SDS011;64371;47.566;19.086;2023-07-16T02:40:10;12.30;;;10.90;;
75758;SDS011;64371;47.566;19.086;2023-07-16T02:43:13;12.40;;;10.20;;
75758;SDS011;64371;47.566;19.086;2023-07-16T02:46:16;13.52;;;10.93;;
75758;SDS011;64371;47.566;19.086;2023-07-16T02:49:19;12.43;;;10.50;;
75758;SDS011;64371;47.566;19.086;2023-07-16T02:52:21;11.25;;;10.00;;
75758;SDS011;64371;47.566;19.086;2023-07-16T02:55:24;14.87;;;10.73;;
75758;SDS011;64371;47.566;19.086;2023-07-16T02:58:26;11.95;;;10.45;;
75758;SDS011;64371;47.566;19.086;2023-07-16T03:01:29;13.25;;;10.85;;
75758;SDS011;64371;47.566;19.086;2023-07-16T03:04:31;12.73;;;10.35;;
75758;SDS011;64371;47.566;19.086;2023-07-16T03:07:34;12.32;;;10.35;;
75758;SDS011;64371;47.566;19.086;2023-07-16T03:10:36;13.90;;;10.60;;
75758;SDS011;64371;47.566;19.086;2023-07-16T03:13:39;11.93;;;10.73;;
75758;SDS011;64371;47.566;19.086;2023-07-16T03:16:42;14.65;;;11.15;;
75758;SDS011;64371;47.566;19.086;2023-07-16T03:19:49;13.85;;;10.38;;
75758;SDS011;64371;47.566;19.086;2023-07-16T03:22:55;11.88;;;10.63;;
75758;SDS011;64371;47.566;19.086;2023-07-16T03:26:04;13.30;;;10.60;;
75758;SDS011;64371;47.566;19.086;2023-07-16T03:29:07;11.32;;;10.07;;
75758;SDS011;64371;47.566;19.086;2023-07-16T03:32:10;12.45;;;9.88;;
75758;SDS011;64371;47.566;19.086;2023-07-16T03:35:13;10.18;;;9.15;;
75758;SDS011;64371;47.566;19.086;2023-07-16T03:38:16;10.70;;;8.80;;
75758;SDS011;64371;47.566;19.086;2023-07-16T03:41:24;9.50;;;8.47;;
75758;SDS011;64371;47.566;19.086;2023-07-16T03:44:27;9.40;;;8.50;;
75758;SDS011;64371;47.566;19.086;2023-07-16T03:47:30;11.02;;;9.07;;
75758;SDS011;64371;47.566;19.086;2023-07-16T03:50:33;10.35;;;8.55;;
75758;SDS011;64371;47.566;19.086;2023-07-16T03:53:36;11.73;;;8.02;;
75758;SDS011;64371;47.566;19.086;2023-07-16T03:56:39;9.17;;;8.23;;
75758;SDS011;64371;47.566;19.086;2023-07-16T03:59:41;14.88;;;8.35;;
75758;SDS011;64371;47.566;19.086;2023-07-16T04:02:45;10.30;;;8.70;;
75758;SDS011;64371;47.566;19.086;2023-07-16T04:05:51;12.52;;;8.52;;
75758;SDS011;64371;47.566;19.086;2023-07-16T04:08:54;10.20;;;8.80;;
75758;SDS011;64371;47.566;19.086;2023-07-16T04:11:56;9.23;;;8.30;;
75758;SDS011;64371;47.566;19.086;2023-07-16T04:14:59;10.90;;;8.68;;
75758;SDS011;64371;47.566;19.086;2023-07-16T04:18:01;9.63;;;8.50;;
75758;SDS011;64371;47.566;19.086;2023-07-16T04:21:06;10.57;;;8.70;;
75758;SDS011;64371;47.566;19.086;2023-07-16T04:24:08;12.30;;;8.88;;
75758;SDS011;64371;47.566;19.086;2023-07-16T04:27:10;10.33;;;9.17;;
75758;SDS011;64371;47.566;19.086;2023-07-16T04:30:13;11.77;;;8.88;;
75758;SDS011;64371;47.566;19.086;2023-07-16T04:33:18;9.82;;;8.70;;
75758;SDS011;64371;47.566;19.086;2023-07-16T04:36:21;11.52;;;8.30;;
75758;SDS011;64371;47.566;19.086;2023-07-16T04:39:23;10.60;;;8.45;;
75758;SDS011;64371;47.566;19.086;2023-07-16T04:42:26;9.20;;;7.50;;
75758;SDS011;64371;47.566;19.086;2023-07-16T04:45:29;9.02;;;7.75;;
75758;SDS011;64371;47.566;19.086;2023-07-16T04:48:32;11.68;;;7.97;;
75758;SDS011;64371;47.566;19.086;2023-07-16T04:51:34;8.90;;;7.57;;
75758;SDS011;64371;47.566;19.086;2023-07-16T04:54:37;10.73;;;7.22;;
75758;SDS011;64371;47.566;19.086;2023-07-16T04:57:40;8.57;;;7.67;;
75758;SDS011;64371;47.566;19.086;2023-07-16T05:00:42;7.95;;;7.10;;
75758;SDS011;64371;47.566;19.086;2023-07-16T05:03:45;11.32;;;7.60;;
75758;SDS011;64371;47.566;19.086;2023-07-16T05:06:48;7.20;;;6.50;;
75758;SDS011;64371;47.566;19.086;2023-07-16T05:09:50;10.05;;;7.13;;
75758;SDS011;64371;47.566;19.086;2023-07-16T05:12:53;8.73;;;7.20;;
75758;SDS011;64371;47.566;19.086;2023-07-16T05:15:55;7.20;;;6.50;;
75758;SDS011;64371;47.566;19.086;2023-07-16T05:18:58;7.75;;;6.55;;
75758;SDS011;64371;47.566;19.086;2023-07-16T05:22:00;9.52;;;6.95;;
75758;SDS011;64371;47.566;19.086;2023-07-16T05:25:02;8.70;;;6.65;;
75758;SDS011;64371;47.566;19.086;2023-07-16T05:28:05;7.20;;;6.50;;
75758;SDS011;64371;47.566;19.086;2023-07-16T05:31:07;7.22;;;6.53;;
75758;SDS011;64371;47.566;19.086;2023-07-16T05:34:10;7.80;;;6.93;;
75758;SDS011;64371;47.566;19.086;2023-07-16T05:37:13;6.82;;;6.13;;
75758;SDS011;64371;47.566;19.086;2023-07-16T05:40:18;9.70;;;6.70;;
75758;SDS011;64371;47.566;19.086;2023-07-16T05:43:21;7.53;;;6.80;;
75758;SDS011;64371;47.566;19.086;2023-07-16T05:46:23;7.13;;;6.40;;
75758;SDS011;64371;47.566;19.086;2023-07-16T05:49:26;7.75;;;6.57;;
75758;SDS011;64371;47.566;19.086;2023-07-16T05:52:28;8.02;;;6.10;;
75758;SDS011;64371;47.566;19.086;2023-07-16T05:55:31;8.20;;;6.38;;
75758;SDS011;64371;47.566;19.086;2023-07-16T05:58:34;7.57;;;6.37;;
75758;SDS011;64371;47.566;19.086;2023-07-16T06:01:36;9.43;;;6.50;;
75758;SDS011;64371;47.566;19.086;2023-07-16T06:04:38;9.25;;;6.20;;
75758;SDS011;64371;47.566;19.086;2023-07-16T06:07:44;8.13;;;5.80;;
75758;SDS011;64371;47.566;19.086;2023-07-16T06:10:46;9.07;;;6.22;;
75758;SDS011;64371;47.566;19.086;2023-07-16T06:13:49;7.27;;;5.93;;
75758;SDS011;64371;47.566;19.086;2023-07-16T06:16:55;6.68;;;5.80;;
75758;SDS011;64371;47.566;19.086;2023-07-16T06:20:01;7.00;;;6.30;;
75758;SDS011;64371;47.566;19.086;2023-07-16T06:23:05;6.63;;;5.95;;
75758;SDS011;64371;47.566;19.086;2023-07-16T06:26:07;9.60;;;6.45;;
75758;SDS011;64371;47.566;19.086;2023-07-16T06:29:10;7.10;;;6.20;;
75758;SDS011;64371;47.566;19.086;2023-07-16T06:32:12;7.18;;;6.07;;
75758;SDS011;64371;47.566;19.086;2023-07-16T06:35:17;6.65;;;5.47;;
75758;SDS011;64371;47.566;19.086;2023-07-16T06:38:19;6.50;;;5.80;;
75758;SDS011;64371;47.566;19.086;2023-07-16T06:41:22;8.73;;;5.72;;
75758;SDS011;64371;47.566;19.086;2023-07-16T06:44:24;7.93;;;5.57;;
75758;SDS011;64371;47.566;19.086;2023-07-16T06:47:26;9.68;;;5.70;;
75758;SDS011;64371;47.566;19.086;2023-07-16T06:50:29;6.63;;;6.03;;
75758;SDS011;64371;47.566;19.086;2023-07-16T06:53:32;6.13;;;5.57;;
75758;SDS011;64371;47.566;19.086;2023-07-16T06:56:40;9.13;;;5.93;;
75758;SDS011;64371;47.566;19.086;2023-07-16T06:59:45;6.53;;;5.60;;
75758;SDS011;64371;47.566;19.086;2023-07-16T07:02:47;6.93;;;5.38;;
75758;SDS011;64371;47.566;19.086;2023-07-16T07:05:50;6.22;;;5.63;;
75758;SDS011;64371;47.566;19.086;2023-07-16T07:08:55;8.55;;;6.00;;
75758;SDS011;64371;47.566;19.086;2023-07-16T07:11:57;6.00;;;5.40;;
75758;SDS011;64371;47.566;19.086;2023-07-16T07:15:00;5.83;;;5.33;;
75758;SDS011;64371;47.566;19.086;2023-07-16T07:18:03;7.10;;;5.32;;
75758;SDS011;64371;47.566;19.086;2023-07-16T07:21:07;8.68;;;5.20;;
75758;SDS011;64371;47.566;19.086;2023-07-16T07:24:09;10.98;;;5.80;;
75758;SDS011;64371;47.566;19.086;2023-07-16T07:27:12;7.45;;;5.45;;
75758;SDS011;64371;47.566;19.086;2023-07-16T07:30:17;5.80;;;5.20;;
75758;SDS011;64371;47.566;19.086;2023-07-16T07:33:20;7.03;;;5.55;;
75758;SDS011;64371;47.566;19.086;2023-07-16T07:36:23;7.88;;;5.50;;
75758;SDS011;64371;47.566;19.086;2023-07-16T07:39:25;6.45;;;5.85;;
75758;SDS011;64371;47.566;19.086;2023-07-16T07:42:28;7.38;;;5.88;;
75758;SDS011;64371;47.566;19.086;2023-07-16T07:45:32;6.50;;;5.13;;
75758;SDS011;64371;47.566;19.086;2023-07-16T07:48:34;8.30;;;5.40;;
75758;SDS011;64371;47.566;19.086;2023-07-16T07:51:36;6.60;;;5.10;;
75758;SDS011;64371;47.566;19.086;2023-07-16T07:54:39;10.27;;;5.60;;
75758;SDS011;64371;47.566;19.086;2023-07-16T07:57:42;7.32;;;5.45;;
75758;SDS011;64371;47.566;19.086;2023-07-16T08:00:56;8.87;;;5.40;;
75758;SDS011;64371;47.566;19.086;2023-07-16T08:03:59;6.30;;;5.70;;
75758;SDS011;64371;47.566;19.086;2023-07-16T08:07:01;7.70;;;5.65;;
75758;SDS011;64371;47.566;19.086;2023-07-16T08:10:04;6.22;;;4.82;;
75758;SDS011;64371;47.566;19.086;2023-07-16T08:13:07;6.30;;;5.25;;
75758;SDS011;64371;47.566;19.086;2023-07-16T08:16:10;6.83;;;5.27;;
75758;SDS011;64371;47.566;19.086;2023-07-16T08:19:12;6.80;;;5.10;;
75758;SDS011;64371;47.566;19.086;2023-07-16T08:22:14;7.95;;;5.22;;
75758;SDS011;64371;47.566;19.086;2023-07-16T08:25:17;6.72;;;5.03;;
75758;SDS011;64371;47.566;19.086;2023-07-16T08:28:19;6.85;;;5.07;;
75758;SDS011;64371;47.566;19.086;2023-07-16T08:31:22;7.23;;;5.10;;
75758;SDS011;64371;47.566;19.086;2023-07-16T08:34:24;10.57;;;5.28;;
75758;SDS011;64371;47.566;19.086;2023-07-16T08:37:26;5.47;;;4.93;;
75758;SDS011;64371;47.566;19.086;2023-07-16T08:40:29;4.70;;;4.30;;
75758;SDS011;64371;47.566;19.086;2023-07-16T08:43:32;7.22;;;4.97;;
75758;SDS011;64371;47.566;19.086;2023-07-16T08:46:35;8.03;;;5.40;;
75758;SDS011;64371;47.566;19.086;2023-07-16T08:49:45;5.70;;;5.20;;
75758;SDS011;64371;47.566;19.086;2023-07-16T08:53:05;8.25;;;5.18;;
75758;SDS011;64371;47.566;19.086;2023-07-16T08:56:08;7.18;;;4.90;;
75758;SDS011;64371;47.566;19.086;2023-07-16T08:59:10;6.03;;;5.18;;
75758;SDS011;64371;47.566;19.086;2023-07-16T09:02:14;6.10;;;4.70;;
75758;SDS011;64371;47.566;19.086;2023-07-16T09:05:20;8.95;;;4.90;;
75758;SDS011;64371;47.566;19.086;2023-07-16T09:08:41;7.03;;;5.60;;
75758;SDS011;64371;47.566;19.086;2023-07-16T09:11:47;8.52;;;6.40;;
75758;SDS011;64371;47.566;19.086;2023-07-16T09:14:50;6.38;;;5.65;;
75758;SDS011;64371;47.566;19.086;2023-07-16T09:17:53;7.50;;;6.63;;
75758;SDS011;64371;47.566;19.086;2023-07-16T09:20:59;8.55;;;6.40;;
75758;SDS011;64371;47.566;19.086;2023-07-16T09:24:07;5.28;;;4.78;;
75758;SDS011;64371;47.566;19.086;2023-07-16T09:27:11;7.88;;;5.53;;
75758;SDS011;64371;47.566;19.086;2023-07-16T09:30:15;8.30;;;6.15;;
75758;SDS011;64371;47.566;19.086;2023-07-16T09:36:25;6.60;;;5.85;;
75758;SDS011;64371;47.566;19.086;2023-07-16T09:39:28;7.50;;;6.78;;
75758;SDS011;64371;47.566;19.086;2023-07-16T09:42:30;11.25;;;6.95;;
75758;SDS011;64371;47.566;19.086;2023-07-16T09:45:33;7.90;;;7.05;;
75758;SDS011;64371;47.566;19.086;2023-07-16T09:48:45;10.37;;;9.30;;
75758;SDS011;64371;47.566;19.086;2023-07-16T09:51:48;9.02;;;7.10;;
75758;SDS011;64371;47.566;19.086;2023-07-16T09:54:57;8.25;;;7.43;;
75758;SDS011;64371;47.566;19.086;2023-07-16T09:58:06;7.88;;;6.80;;
75758;SDS011;64371;47.566;19.086;2023-07-16T10:01:12;9.70;;;7.20;;
75758;SDS011;64371;47.566;19.086;2023-07-16T10:04:19;8.20;;;6.60;;
75758;SDS011;64371;47.566;19.086;2023-07-16T10:07:24;10.85;;;7.57;;
75758;SDS011;64371;47.566;19.086;2023-07-16T10:10:42;8.57;;;7.78;;
75758;SDS011;64371;47.566;19.086;2023-07-16T10:13:51;13.75;;;8.40;;
75758;SDS011;64371;47.566;19.086;2023-07-16T10:17:26;10.95;;;8.50;;
75758;SDS011;64371;47.566;19.086;2023-07-16T10:20:30;8.10;;;7.30;;
75758;SDS011;64371;47.566;19.086;2023-07-16T10:23:41;11.18;;;8.15;;
75758;SDS011;64371;47.566;19.086;2023-07-16T10:26:44;9.07;;;7.53;;
75758;SDS011;64371;47.566;19.086;2023-07-16T10:29:55;11.48;;;8.15;;
75758;SDS011;64371;47.566;19.086;2023-07-16T10:32:58;10.27;;;7.90;;
75758;SDS011;64371;47.566;19.086;2023-07-16T10:36:04;9.90;;;7.80;;
75758;SDS011;64371;47.566;19.086;2023-07-16T10:39:06;8.52;;;7.70;;
75758;SDS011;64371;47.566;19.086;2023-07-16T10:42:09;10.13;;;8.98;;
75758;SDS011;64371;47.566;19.086;2023-07-16T10:45:12;9.52;;;8.32;;
75758;SDS011;64371;47.566;19.086;2023-07-16T10:48:14;9.60;;;7.00;;
75758;SDS011;64371;47.566;19.086;2023-07-16T10:51:17;11.67;;;8.67;;
75758;SDS011;64371;47.566;19.086;2023-07-16T10:54:19;10.23;;;9.15;;
75758;SDS011;64371;47.566;19.086;2023-07-16T10:57:22;10.27;;;8.50;;
75758;SDS011;64371;47.566;19.086;2023-07-16T11:00:25;11.77;;;10.13;;
75758;SDS011;64371;47.566;19.086;2023-07-16T11:03:27;10.38;;;9.38;;
75758;SDS011;64371;47.566;19.086;2023-07-16T11:06:33;12.50;;;8.57;;
75758;SDS011;64371;47.566;19.086;2023-07-16T11:12:50;8.88;;;7.97;;
75758;SDS011;64371;47.566;19.086;2023-07-16T11:15:54;9.85;;;8.68;;
75758;SDS011;64371;47.566;19.086;2023-07-16T11:18:56;9.52;;;8.50;;
75758;SDS011;64371;47.566;19.086;2023-07-16T11:22:01;9.20;;;6.97;;
75758;SDS011;64371;47.566;19.086;2023-07-16T11:25:12;11.32;;;8.10;;
75758;SDS011;64371;47.566;19.086;2023-07-16T11:28:16;9.18;;;7.82;;
75758;SDS011;64371;47.566;19.086;2023-07-16T11:31:19;12.05;;;8.52;;
75758;SDS011;64371;47.566;19.086;2023-07-16T11:34:25;10.35;;;9.27;;
75758;SDS011;64371;47.566;19.086;2023-07-16T11:37:28;9.63;;;8.60;;
75758;SDS011;64371;47.566;19.086;2023-07-16T11:40:35;11.00;;;7.22;;
75758;SDS011;64371;47.566;19.086;2023-07-16T11:43:39;11.18;;;8.20;;
75758;SDS011;64371;47.566;19.086;2023-07-16T11:46:42;9.77;;;8.55;;
75758;SDS011;64371;47.566;19.086;2023-07-16T11:49:49;12.13;;;7.95;;
75758;SDS011;64371;47.566;19.086;2023-07-16T11:52:54;10.47;;;8.30;;
75758;SDS011;64371;47.566;19.086;2023-07-16T11:55:57;8.55;;;7.63;;
75758;SDS011;64371;47.566;19.086;2023-07-16T11:59:00;10.98;;;7.20;;
75758;SDS011;64371;47.566;19.086;2023-07-16T12:02:02;9.55;;;6.88;;
75758;SDS011;64371;47.566;19.086;2023-07-16T12:05:05;8.73;;;6.80;;
75758;SDS011;64371;47.566;19.086;2023-07-16T12:08:08;8.40;;;7.33;;
75758;SDS011;64371;47.566;19.086;2023-07-16T12:11:16;10.57;;;7.78;;
75758;SDS011;64371;47.566;19.086;2023-07-16T12:14:19;11.27;;;7.53;;
75758;SDS011;64371;47.566;19.086;2023-07-16T12:17:21;10.23;;;6.97;;
75758;SDS011;64371;47.566;19.086;2023-07-16T12:20:24;8.55;;;5.95;;
75758;SDS011;64371;47.566;19.086;2023-07-16T12:23:26;7.20;;;6.43;;
75758;SDS011;64371;47.566;19.086;2023-07-16T12:26:28;7.68;;;5.90;;
75758;SDS011;64371;47.566;19.086;2023-07-16T12:29:31;7.38;;;6.60;;
75758;SDS011;64371;47.566;19.086;2023-07-16T12:32:43;9.82;;;6.60;;
75758;SDS011;64371;47.566;19.086;2023-07-16T12:35:46;10.95;;;6.90;;
75758;SDS011;64371;47.566;19.086;2023-07-16T12:38:49;7.17;;;6.43;;
75758;SDS011;64371;47.566;19.086;2023-07-16T12:41:51;6.97;;;5.75;;
75758;SDS011;64371;47.566;19.086;2023-07-16T12:44:54;10.23;;;6.35;;
75758;SDS011;64371;47.566;19.086;2023-07-16T12:47:56;7.28;;;5.63;;
75758;SDS011;64371;47.566;19.086;2023-07-16T12:50:59;9.50;;;5.65;;
75758;SDS011;64371;47.566;19.086;2023-07-16T12:54:03;9.30;;;6.33;;
75758;SDS011;64371;47.566;19.086;2023-07-16T12:57:09;10.05;;;5.72;;
75758;SDS011;64371;47.566;19.086;2023-07-16T13:00:11;7.45;;;5.85;;
75758;SDS011;64371;47.566;19.086;2023-07-16T13:03:14;8.45;;;5.60;;
75758;SDS011;64371;47.566;19.086;2023-07-16T13:06:18;7.45;;;5.57;;
75758;SDS011;64371;47.566;19.086;2023-07-16T13:09:21;8.60;;;3.83;;
75758;SDS011;64371;47.566;19.086;2023-07-16T13:12:24;6.57;;;5.30;;
75758;SDS011;64371;47.566;19.086;2023-07-16T13:15:27;8.75;;;5.60;;
75758;SDS011;64371;47.566;19.086;2023-07-16T13:18:29;5.70;;;5.20;;
75758;SDS011;64371;47.566;19.086;2023-07-16T13:21:32;6.60;;;5.68;;
75758;SDS011;64371;47.566;19.086;2023-07-16T13:24:34;7.40;;;5.57;;
75758;SDS011;64371;47.566;19.086;2023-07-16T13:27:36;8.40;;;5.38;;
75758;SDS011;64371;47.566;19.086;2023-07-16T13:30:39;6.82;;;6.13;;
75758;SDS011;64371;47.566;19.086;2023-07-16T13:33:41;7.15;;;6.13;;
75758;SDS011;64371;47.566;19.086;2023-07-16T13:36:43;7.50;;;5.28;;
75758;SDS011;64371;47.566;19.086;2023-07-16T13:39:46;7.83;;;5.70;;
75758;SDS011;64371;47.566;19.086;2023-07-16T13:42:48;7.10;;;5.88;;
75758;SDS011;64371;47.566;19.086;2023-07-16T13:45:52;7.05;;;6.07;;
75758;SDS011;64371;47.566;19.086;2023-07-16T13:48:55;7.35;;;6.22;;
75758;SDS011;64371;47.566;19.086;2023-07-16T13:52:00;6.18;;;5.57;;
75758;SDS011;64371;47.566;19.086;2023-07-16T13:55:04;6.57;;;5.60;;
75758;SDS011;64371;47.566;19.086;2023-07-16T13:58:07;8.98;;;6.20;;
75758;SDS011;64371;47.566;19.086;2023-07-16T14:01:09;11.15;;;6.03;;
75758;SDS011;64371;47.566;19.086;2023-07-16T14:04:12;9.13;;;6.25;;
75758;SDS011;64371;47.566;19.086;2023-07-16T14:07:20;6.93;;;5.80;;
75758;SDS011;64371;47.566;19.086;2023-07-16T14:10:25;11.40;;;6.20;;
75758;SDS011;64371;47.566;19.086;2023-07-16T14:13:28;9.52;;;5.97;;
75758;SDS011;64371;47.566;19.086;2023-07-16T14:16:31;9.25;;;6.65;;
75758;SDS011;64371;47.566;19.086;2023-07-16T14:19:33;8.15;;;6.20;;
75758;SDS011;64371;47.566;19.086;2023-07-16T14:22:35;8.07;;;6.13;;
75758;SDS011;64371;47.566;19.086;2023-07-16T14:25:38;7.40;;;5.70;;
75758;SDS011;64371;47.566;19.086;2023-07-16T14:28:40;9.45;;;6.05;;
